Weather at Blackpool International Airport

Public forecast

Using degrees Celsius for public forecast. Weather courtesy of forecast.io.

Current aviation weather report (METAR) for Blackpool International Airport

Report is more than 2 hours old.

Retrieved 2021/05/08 19:50 UTC (5 hours ago):

EGNH 081950Z 21007KT 9999 SCT022 12/10 Q0994

Aviation forecast (TAF) for Blackpool International Airport

Forecast is more than 12 hours old.

Retrieved 2021/03/07 18:28 UTC (2 months ago):

TAF EGNH 072121Z 0718/0821 CNL